KFST/FST METAR and TAF weather

Enter ICAO airport designator
Station Type Date Time Source
KFST METAR 2020/07/06 23:53 UTC NOAA

KFST 062353Z AUTO 05007KT 10SM CLR 36/13 A2993 RMK AO2 SLP081 T03560128 10361 20306 56015


Station Type Date Time Source
KFST Decoded METAR 2020/07/06 23:53 UTC NOAA

FORT STOCKTON PECOS CO AIRPORT , TX, United States (KFST) 30-55N 102-55W 918M
Jul 06, 2020 - 07:53 PM EDT / 2020.07.06 2353 UTC
Wind: from the NE (050 degrees) at 8 MPH (7 KT):0
Visibility: 10 mile(s):0
Sky conditions: clear
Temperature: 96.1 F (35.6 C)
Heat index: 94.1 F (34.5 C):1
Dew Point: 55.0 F (12.8 C)
Relative Humidity: 25%
Pressure (altimeter): 29.93 in. Hg (1013 hPa)
Pressure tendency: 0.04 inches (1.5 hPa) lower than three hours ago
ob: KFST 062353Z AUTO 05007KT 10SM CLR 36/13 A2993 RMK AO2 SLP081 T03560128 10361 20306 56015
cycle: 0

Station Type Date Time Source
KFST TAF 2020/07/06 18:27 UTC NOAA

TAF KFST 061724Z 0618/0718 07008KT P6SM SCT080 SCT250

Example: see airport list